Impacts TAF Board INFO
FOR SITUATIONAL AWARENESS. NOT TO BE USED FOR FLIGHT PLANNING PURPOSES.
IDs:

KPHL - Philadelphia Intl, PA, US

Issued at 0044 UTC 18 Aug 2018
Updated at 0126 UTC 18 Aug 2018
Potential Impact None Slight Moderate High
Time0054Z 18/02Z 18/03Z 18/04Z 18/05Z 18/06Z 18/07Z 18/08Z 18/09Z 18/10Z 18/11Z 18/12Z 18/13Z 18/14Z>>
Type OBS PRVL
  [TEMP]  
PRVL
  [TEMP]  
PRVL PRVL PRVL PRVL PRVL PRVL PRVL PRVL PRVL PRVL PRVL
VIS 10 >6
  [6]  
>6
  [6]  
>6 >6 >6 >6 >6 >6 >6 >6 >6 >6 >6
CIG 210 70
  [40]  
70
  [40]  
70 70 50 50 50 50 50 50 80 80 80
Cover OVC OVC
  [OVC]  
OVC
  [OVC]  
OVC OVC OVC OVC OVC OVC OVC OVC OVC OVC OVC
FltCat VFR VFR
  [VFR]  
VFR
  [VFR]  
VFR VFR VFR VFR VFR VFR VFR VFR VFR VFR VFR
WX -- --
  [-SHRA]  
--
  [-SHRA]  
-- -- -- -- -- -- -- -- -- -- --
WDir 190 200
[200]
200
[200]
200 200 210 210 210 210 210 210 250 250 250
WSpd 7 10
  [10]  
10
  [10]  
10 10 8 8 8 8 8 8 5 5 5
WGst -- --
  [--]  
--
  [--]  
-- -- -- -- -- -- -- -- -- -- --

Raw TAF
KPHL 180044Z 1801/1906 20010KT P6SM OVC070
  TEMPO 1801/1804 6SM -SHRA OVC040
  FM180600 21008KT P6SM OVC050
  FM181200 25005KT P6SM OVC080
  FM190000 28007KT P6SM SHRA OVC080


Raw METAR
KPHL 180054Z 19007KT 10SM BKN210 OVC260 29/23 A2994 RMK AO2 SLP137 T02890228 $
KPHL 172354Z 20007KT 10SM FEW040 SCT200 OVC250 29/23 A2994 RMK AO2 LTG DSNT NW SLP139 T02940228 10339 20294 55005 $
KPHL 172254Z 18008KT 10SM FEW040 SCT200 BKN250 30/23 A2993 RMK AO2 SLP136 T03000233 $

METAR Board
Radar Display
Forecast Discussion

FOR SITUATIONAL AWARENESS. NOT TO BE USED FOR FLIGHT PLANNING PURPOSES.